sensor_id;sensor_type;location;lat;lon;timestamp;pressure;altitude;pressure_sealevel;temperature;humidity
78431;BME280;67727;50.236;22.452;2023-03-23T00:01:32;99320.85;;;7.93;70.39
78431;BME280;67727;50.236;22.452;2023-03-23T00:04:03;99320.42;;;7.94;70.58
78431;BME280;67727;50.236;22.452;2023-03-23T00:06:33;99318.91;;;7.93;70.36
78431;BME280;67727;50.236;22.452;2023-03-23T00:09:01;99318.50;;;7.92;70.69
78431;BME280;67727;50.236;22.452;2023-03-23T00:11:31;99316.92;;;7.88;70.61
78431;BME280;67727;50.236;22.452;2023-03-23T00:14:00;99316.42;;;7.85;70.71
78431;BME280;67727;50.236;22.452;2023-03-23T00:16:32;99317.80;;;7.81;70.75
78431;BME280;67727;50.236;22.452;2023-03-23T00:19:01;99315.89;;;7.77;70.91
78431;BME280;67727;50.236;22.452;2023-03-23T00:21:31;99315.52;;;7.76;70.73
78431;BME280;67727;50.236;22.452;2023-03-23T00:26:30;99311.73;;;7.78;71.06
78431;BME280;67727;50.236;22.452;2023-03-23T00:29:02;99310.05;;;7.81;70.87
78431;BME280;67727;50.236;22.452;2023-03-23T00:31:29;99306.42;;;7.82;70.96
78431;BME280;67727;50.236;22.452;2023-03-23T00:33:59;99304.48;;;7.82;70.77
78431;BME280;67727;50.236;22.452;2023-03-23T00:36:28;99302.99;;;7.81;70.70
78431;BME280;67727;50.236;22.452;2023-03-23T00:38:57;99297.95;;;7.79;70.89
78431;BME280;67727;50.236;22.452;2023-03-23T00:41:30;99298.34;;;7.77;70.91
78431;BME280;67727;50.236;22.452;2023-03-23T00:43:58;99297.27;;;7.74;70.88
78431;BME280;67727;50.236;22.452;2023-03-23T00:46:27;99295.95;;;7.72;70.80
78431;BME280;67727;50.236;22.452;2023-03-23T00:48:55;99291.02;;;7.68;71.11
78431;BME280;67727;50.236;22.452;2023-03-23T00:51:23;99288.42;;;7.66;70.95
78431;BME280;67727;50.236;22.452;2023-03-23T00:53:51;99287.13;;;7.67;71.06
78431;BME280;67727;50.236;22.452;2023-03-23T00:56:17;99284.56;;;7.68;71.02
78431;BME280;67727;50.236;22.452;2023-03-23T00:58:44;99286.09;;;7.70;71.00
78431;BME280;67727;50.236;22.452;2023-03-23T01:01:11;99285.17;;;7.72;70.96
78431;BME280;67727;50.236;22.452;2023-03-23T01:03:38;99282.00;;;7.72;70.82
78431;BME280;67727;50.236;22.452;2023-03-23T01:06:07;99275.80;;;7.71;71.07
78431;BME280;67727;50.236;22.452;2023-03-23T01:08:34;99274.19;;;7.70;71.05
78431;BME280;67727;50.236;22.452;2023-03-23T01:11:06;99275.16;;;7.67;71.15
78431;BME280;67727;50.236;22.452;2023-03-23T01:13:33;99273.90;;;7.64;71.03
78431;BME280;67727;50.236;22.452;2023-03-23T01:16:01;99272.34;;;7.61;71.21
78431;BME280;67727;50.236;22.452;2023-03-23T01:18:28;99273.13;;;7.57;71.25
78431;BME280;67727;50.236;22.452;2023-03-23T01:20:55;99269.59;;;7.54;71.32
78431;BME280;67727;50.236;22.452;2023-03-23T01:23:22;99270.27;;;7.54;71.43
78431;BME280;67727;50.236;22.452;2023-03-23T01:25:49;99269.97;;;7.55;71.54
78431;BME280;67727;50.236;22.452;2023-03-23T01:28:16;99267.71;;;7.58;71.45
78431;BME280;67727;50.236;22.452;2023-03-23T01:30:43;99267.99;;;7.60;71.39
78431;BME280;67727;50.236;22.452;2023-03-23T01:33:12;99272.27;;;7.63;71.36
78431;BME280;67727;50.236;22.452;2023-03-23T01:35:43;99267.77;;;7.64;71.37
78431;BME280;67727;50.236;22.452;2023-03-23T01:38:11;99264.52;;;7.63;71.31
78431;BME280;67727;50.236;22.452;2023-03-23T01:40:40;99261.41;;;7.62;71.47
78431;BME280;67727;50.236;22.452;2023-03-23T01:43:13;99259.38;;;7.62;71.22
78431;BME280;67727;50.236;22.452;2023-03-23T01:45:41;99259.28;;;7.60;71.51
78431;BME280;67727;50.236;22.452;2023-03-23T01:48:12;99257.80;;;7.57;71.36
78431;BME280;67727;50.236;22.452;2023-03-23T01:53:27;99258.08;;;7.53;71.42
78431;BME280;67727;50.236;22.452;2023-03-23T01:55:56;99255.97;;;7.55;71.63
78431;BME280;67727;50.236;22.452;2023-03-23T01:58:27;99256.18;;;7.57;71.48
78431;BME280;67727;50.236;22.452;2023-03-23T02:01:00;99256.91;;;7.62;71.67
78431;BME280;67727;50.236;22.452;2023-03-23T02:03:31;99254.78;;;7.65;71.50
78431;BME280;67727;50.236;22.452;2023-03-23T02:05:59;99254.92;;;7.67;71.29
78431;BME280;67727;50.236;22.452;2023-03-23T02:08:29;99255.45;;;7.67;71.35
78431;BME280;67727;50.236;22.452;2023-03-23T02:10:59;99252.21;;;7.66;71.62
78431;BME280;67727;50.236;22.452;2023-03-23T02:13:26;99256.36;;;7.65;71.24
78431;BME280;67727;50.236;22.452;2023-03-23T02:18:57;99253.70;;;7.62;71.33
78431;BME280;67727;50.236;22.452;2023-03-23T02:24:12;99252.06;;;7.58;71.40
78431;BME280;67727;50.236;22.452;2023-03-23T02:27:08;99254.47;;;7.58;71.54
78431;BME280;67727;50.236;22.452;2023-03-23T02:35:22;99260.20;;;7.74;71.25
78431;BME280;67727;50.236;22.452;2023-03-23T02:37:58;99261.41;;;7.77;71.31
78431;BME280;67727;50.236;22.452;2023-03-23T02:40:38;99264.45;;;7.80;71.24
78431;BME280;67727;50.236;22.452;2023-03-23T02:43:12;99265.55;;;7.82;71.27
78431;BME280;67727;50.236;22.452;2023-03-23T02:45:43;99264.39;;;7.83;71.13
78431;BME280;67727;50.236;22.452;2023-03-23T02:48:13;99263.63;;;7.85;71.33
78431;BME280;67727;50.236;22.452;2023-03-23T02:50:44;99263.21;;;7.86;71.35
78431;BME280;67727;50.236;22.452;2023-03-23T02:53:14;99265.18;;;7.87;71.19
78431;BME280;67727;50.236;22.452;2023-03-23T02:55:43;99260.89;;;7.88;70.96
78431;BME280;67727;50.236;22.452;2023-03-23T02:58:11;99260.75;;;7.89;71.11
78431;BME280;67727;50.236;22.452;2023-03-23T03:00:38;99254.58;;;7.93;71.18
78431;BME280;67727;50.236;22.452;2023-03-23T03:03:10;99252.41;;;7.98;71.18
78431;BME280;67727;50.236;22.452;2023-03-23T03:09:05;99251.18;;;8.15;71.11
78431;BME280;67727;50.236;22.452;2023-03-23T03:11:35;99244.67;;;8.24;70.75
78431;BME280;67727;50.236;22.452;2023-03-23T03:14:26;99241.69;;;8.32;70.71
78431;BME280;67727;50.236;22.452;2023-03-23T03:17:09;99238.00;;;8.38;70.85
78431;BME280;67727;50.236;22.452;2023-03-23T03:19:43;99228.69;;;8.44;70.33
78431;BME280;67727;50.236;22.452;2023-03-23T03:22:13;99232.12;;;8.50;70.40
78431;BME280;67727;50.236;22.452;2023-03-23T03:24:41;99234.42;;;8.53;70.17
78431;BME280;67727;50.236;22.452;2023-03-23T03:27:13;99239.08;;;8.57;70.05
78431;BME280;67727;50.236;22.452;2023-03-23T03:29:46;99250.75;;;8.64;69.72
78431;BME280;67727;50.236;22.452;2023-03-23T03:32:17;99262.56;;;8.72;69.90
78431;BME280;67727;50.236;22.452;2023-03-23T03:34:45;99264.89;;;8.79;69.52
78431;BME280;67727;50.236;22.452;2023-03-23T03:37:14;99268.35;;;8.86;69.47
78431;BME280;67727;50.236;22.452;2023-03-23T03:39:42;99267.66;;;8.88;69.87
78431;BME280;67727;50.236;22.452;2023-03-23T03:42:11;99263.57;;;8.89;69.52
78431;BME280;67727;50.236;22.452;2023-03-23T03:44:38;99257.44;;;8.87;69.62
78431;BME280;67727;50.236;22.452;2023-03-23T03:47:04;99250.88;;;8.84;69.40
78431;BME280;67727;50.236;22.452;2023-03-23T03:49:32;99249.85;;;8.81;69.60
78431;BME280;67727;50.236;22.452;2023-03-23T03:51:59;99249.38;;;8.79;69.29
78431;BME280;67727;50.236;22.452;2023-03-23T03:54:25;99251.30;;;8.78;69.38
78431;BME280;67727;50.236;22.452;2023-03-23T03:56:53;99253.90;;;8.77;69.45
78431;BME280;67727;50.236;22.452;2023-03-23T03:59:27;99257.06;;;8.78;68.98
78431;BME280;67727;50.236;22.452;2023-03-23T04:01:54;99259.32;;;8.83;69.50
78431;BME280;67727;50.236;22.452;2023-03-23T04:04:21;99263.31;;;8.88;69.20
78431;BME280;67727;50.236;22.452;2023-03-23T04:06:48;99264.08;;;8.95;69.10
78431;BME280;67727;50.236;22.452;2023-03-23T04:09:16;99260.55;;;9.00;69.40
78431;BME280;67727;50.236;22.452;2023-03-23T04:11:42;99253.12;;;9.04;69.04
78431;BME280;67727;50.236;22.452;2023-03-23T04:14:10;99259.33;;;9.05;68.95
78431;BME280;67727;50.236;22.452;2023-03-23T04:16:36;99258.23;;;9.05;68.99
78431;BME280;67727;50.236;22.452;2023-03-23T04:19:03;99250.34;;;9.05;68.53
78431;BME280;67727;50.236;22.452;2023-03-23T04:21:30;99251.81;;;9.04;68.71
78431;BME280;67727;50.236;22.452;2023-03-23T04:23:59;99252.00;;;9.03;68.87
78431;BME280;67727;50.236;22.452;2023-03-23T04:26:27;99245.93;;;9.02;68.89
78431;BME280;67727;50.236;22.452;2023-03-23T04:28:57;99245.62;;;8.99;69.00
78431;BME280;67727;50.236;22.452;2023-03-23T04:31:25;99242.52;;;8.97;69.00
78431;BME280;67727;50.236;22.452;2023-03-23T04:33:52;99240.80;;;8.96;68.97
78431;BME280;67727;50.236;22.452;2023-03-23T04:36:19;99241.17;;;8.98;69.00
78431;BME280;67727;50.236;22.452;2023-03-23T04:38:48;99237.56;;;9.02;69.00
78431;BME280;67727;50.236;22.452;2023-03-23T04:41:17;99236.12;;;9.06;68.69
78431;BME280;67727;50.236;22.452;2023-03-23T04:43:44;99235.23;;;9.09;68.74
78431;BME280;67727;50.236;22.452;2023-03-23T04:46:13;99233.98;;;9.12;68.75
78431;BME280;67727;50.236;22.452;2023-03-23T04:48:44;99230.08;;;9.13;68.87
78431;BME280;67727;50.236;22.452;2023-03-23T04:51:11;99233.10;;;9.15;68.59
78431;BME280;67727;50.236;22.452;2023-03-23T04:53:41;99234.80;;;9.15;68.82
78431;BME280;67727;50.236;22.452;2023-03-23T04:56:07;99231.64;;;9.16;68.44
78431;BME280;67727;50.236;22.452;2023-03-23T04:58:34;99231.89;;;9.18;68.50
78431;BME280;67727;50.236;22.452;2023-03-23T05:01:01;99233.14;;;9.19;68.70
78431;BME280;67727;50.236;22.452;2023-03-23T05:03:28;99232.79;;;9.20;68.41
78431;BME280;67727;50.236;22.452;2023-03-23T05:05:55;99230.30;;;9.23;67.96
78431;BME280;67727;50.236;22.452;2023-03-23T05:08:23;99234.23;;;9.29;68.18
78431;BME280;67727;50.236;22.452;2023-03-23T05:10:56;99227.77;;;9.35;68.03
78431;BME280;67727;50.236;22.452;2023-03-23T05:13:24;99232.97;;;9.40;68.06
78431;BME280;67727;50.236;22.452;2023-03-23T05:15:51;99239.56;;;9.45;67.86
78431;BME280;67727;50.236;22.452;2023-03-23T05:18:18;99241.83;;;9.50;67.61
78431;BME280;67727;50.236;22.452;2023-03-23T05:20:47;99245.91;;;9.54;67.65
78431;BME280;67727;50.236;22.452;2023-03-23T05:23:15;99245.47;;;9.60;67.82
78431;BME280;67727;50.236;22.452;2023-03-23T05:25:42;99247.43;;;9.65;67.35
78431;BME280;67727;50.236;22.452;2023-03-23T05:28:10;99244.82;;;9.71;67.49
78431;BME280;67727;50.236;22.452;2023-03-23T05:30:38;99246.89;;;9.77;67.24
78431;BME280;67727;50.236;22.452;2023-03-23T05:33:05;99247.48;;;9.84;67.36
78431;BME280;67727;50.236;22.452;2023-03-23T05:35:33;99243.88;;;9.91;66.96
78431;BME280;67727;50.236;22.452;2023-03-23T05:37:59;99244.62;;;9.98;67.41
78431;BME280;67727;50.236;22.452;2023-03-23T05:40:28;99245.08;;;10.05;67.17
78431;BME280;67727;50.236;22.452;2023-03-23T05:42:55;99245.55;;;10.17;66.78
78431;BME280;67727;50.236;22.452;2023-03-23T05:45:25;99246.52;;;10.27;66.66
78431;BME280;67727;50.236;22.452;2023-03-23T05:47:52;99246.45;;;10.38;66.14
78431;BME280;67727;50.236;22.452;2023-03-23T05:50:19;99243.25;;;10.47;66.09
78431;BME280;67727;50.236;22.452;2023-03-23T05:52:46;99245.80;;;10.56;65.62
78431;BME280;67727;50.236;22.452;2023-03-23T05:55:13;99247.97;;;10.65;65.58
78431;BME280;67727;50.236;22.452;2023-03-23T05:57:41;99246.41;;;10.72;65.40
78431;BME280;67727;50.236;22.452;2023-03-23T06:00:09;99248.31;;;10.79;65.44
78431;BME280;67727;50.236;22.452;2023-03-23T06:02:42;99248.56;;;10.87;65.30
78431;BME280;67727;50.236;22.452;2023-03-23T06:05:10;99245.63;;;10.95;64.82
78431;BME280;67727;50.236;22.452;2023-03-23T06:07:37;99247.57;;;11.03;64.89
78431;BME280;67727;50.236;22.452;2023-03-23T06:10:08;99245.57;;;11.13;64.46
78431;BME280;67727;50.236;22.452;2023-03-23T06:12:37;99243.97;;;11.21;64.06
78431;BME280;67727;50.236;22.452;2023-03-23T06:15:07;99243.55;;;11.29;64.41
78431;BME280;67727;50.236;22.452;2023-03-23T06:17:34;99245.80;;;11.36;64.21
78431;BME280;67727;50.236;22.452;2023-03-23T06:20:04;99245.38;;;11.45;64.12
78431;BME280;67727;50.236;22.452;2023-03-23T06:22:37;99248.87;;;11.54;63.84
78431;BME280;67727;50.236;22.452;2023-03-23T06:25:06;99252.14;;;11.66;64.14
78431;BME280;67727;50.236;22.452;2023-03-23T06:27:34;99247.08;;;11.78;64.05
78431;BME280;67727;50.236;22.452;2023-03-23T06:30:03;99244.80;;;11.90;63.75
78431;BME280;67727;50.236;22.452;2023-03-23T06:32:31;99241.19;;;12.00;63.16
78431;BME280;67727;50.236;22.452;2023-03-23T06:34:59;99244.67;;;12.13;63.30
78431;BME280;67727;50.236;22.452;2023-03-23T06:37:26;99248.41;;;12.27;63.16
78431;BME280;67727;50.236;22.452;2023-03-23T06:39:53;99252.39;;;12.40;62.90
78431;BME280;67727;50.236;22.452;2023-03-23T06:42:23;99250.05;;;12.52;62.16
78431;BME280;67727;50.236;22.452;2023-03-23T06:44:53;99250.41;;;12.63;61.61
78431;BME280;67727;50.236;22.452;2023-03-23T06:47:23;99252.02;;;12.70;61.13
78431;BME280;67727;50.236;22.452;2023-03-23T06:49:53;99250.96;;;12.73;61.05
78431;BME280;67727;50.236;22.452;2023-03-23T06:52:20;99253.77;;;12.75;60.61
78431;BME280;67727;50.236;22.452;2023-03-23T06:54:50;99252.90;;;12.76;60.62
78431;BME280;67727;50.236;22.452;2023-03-23T06:57:17;99253.06;;;12.80;60.66
78431;BME280;67727;50.236;22.452;2023-03-23T06:59:45;99257.50;;;12.86;60.95
78431;BME280;67727;50.236;22.452;2023-03-23T07:02:13;99256.98;;;12.93;60.71
78431;BME280;67727;50.236;22.452;2023-03-23T07:04:40;99259.52;;;13.00;60.25
78431;BME280;67727;50.236;22.452;2023-03-23T07:07:09;99260.52;;;13.08;60.38
78431;BME280;67727;50.236;22.452;2023-03-23T07:09:37;99261.26;;;13.15;60.29
78431;BME280;67727;50.236;22.452;2023-03-23T07:12:05;99257.77;;;13.21;60.36
78431;BME280;67727;50.236;22.452;2023-03-23T07:14:32;99261.14;;;13.28;60.11
78431;BME280;67727;50.236;22.452;2023-03-23T07:16:59;99262.08;;;13.33;59.83
78431;BME280;67727;50.236;22.452;2023-03-23T07:19:27;99259.50;;;13.41;60.14
78431;BME280;67727;50.236;22.452;2023-03-23T07:21:53;99258.68;;;13.51;60.16
78431;BME280;67727;50.236;22.452;2023-03-23T07:24:20;99258.08;;;13.63;59.93
78431;BME280;67727;50.236;22.452;2023-03-23T07:26:47;99260.23;;;13.73;58.84
78431;BME280;67727;50.236;22.452;2023-03-23T07:29:16;99264.04;;;13.80;58.61
78431;BME280;67727;50.236;22.452;2023-03-23T07:31:43;99262.27;;;13.87;58.65
78431;BME280;67727;50.236;22.452;2023-03-23T07:34:10;99263.44;;;13.94;58.44
78431;BME280;67727;50.236;22.452;2023-03-23T07:36:37;99266.20;;;14.01;58.47
78431;BME280;67727;50.236;22.452;2023-03-23T07:39:04;99263.36;;;14.07;57.59
78431;BME280;67727;50.236;22.452;2023-03-23T07:41:34;99267.62;;;14.13;57.42
78431;BME280;67727;50.236;22.452;2023-03-23T07:44:01;99265.95;;;14.18;57.53
78431;BME280;67727;50.236;22.452;2023-03-23T07:46:28;99261.83;;;14.24;56.96
78431;BME280;67727;50.236;22.452;2023-03-23T07:48:55;99261.94;;;14.29;57.09
78431;BME280;67727;50.236;22.452;2023-03-23T07:51:23;99259.61;;;14.36;56.61
78431;BME280;67727;50.236;22.452;2023-03-23T07:53:50;99260.04;;;14.45;56.91
78431;BME280;67727;50.236;22.452;2023-03-23T07:56:17;99255.88;;;14.59;56.77
78431;BME280;67727;50.236;22.452;2023-03-23T07:58:46;99248.04;;;14.75;56.78
78431;BME280;67727;50.236;22.452;2023-03-23T08:01:13;99252.73;;;14.98;56.68
78431;BME280;67727;50.236;22.452;2023-03-23T08:03:40;99250.59;;;15.32;57.07
78431;BME280;67727;50.236;22.452;2023-03-23T08:06:08;99249.68;;;15.67;55.82
78431;BME280;67727;50.236;22.452;2023-03-23T08:08:36;99250.92;;;15.95;54.63
78431;BME280;67727;50.236;22.452;2023-03-23T08:11:03;99255.44;;;16.19;53.48
78431;BME280;67727;50.236;22.452;2023-03-23T08:13:30;99250.02;;;16.41;53.18
78431;BME280;67727;50.236;22.452;2023-03-23T08:15:57;99247.48;;;16.68;52.60
78431;BME280;67727;50.236;22.452;2023-03-23T08:18:24;99247.23;;;16.93;51.76
78431;BME280;67727;50.236;22.452;2023-03-23T08:20:51;99242.97;;;17.11;50.99
78431;BME280;67727;50.236;22.452;2023-03-23T08:23:20;99243.35;;;17.23;50.78
78431;BME280;67727;50.236;22.452;2023-03-23T08:25:50;99246.33;;;17.26;49.87
78431;BME280;67727;50.236;22.452;2023-03-23T08:28:17;99241.35;;;17.27;50.23
78431;BME280;67727;50.236;22.452;2023-03-23T08:30:44;99241.31;;;17.29;50.16
78431;BME280;67727;50.236;22.452;2023-03-23T08:33:10;99239.15;;;17.33;49.84
78431;BME280;67727;50.236;22.452;2023-03-23T08:35:38;99240.60;;;17.40;50.19
78431;BME280;67727;50.236;22.452;2023-03-23T08:38:07;99238.90;;;17.50;50.22
78431;BME280;67727;50.236;22.452;2023-03-23T08:40:34;99240.45;;;17.61;50.07
78431;BME280;67727;50.236;22.452;2023-03-23T08:43:01;99241.74;;;17.72;49.73
78431;BME280;67727;50.236;22.452;2023-03-23T08:45:28;99242.08;;;17.80;48.59
78431;BME280;67727;50.236;22.452;2023-03-23T08:47:55;99240.23;;;17.79;48.37
78431;BME280;67727;50.236;22.452;2023-03-23T08:50:25;99243.08;;;17.79;49.06
78431;BME280;67727;50.236;22.452;2023-03-23T08:52:54;99242.52;;;17.85;49.49
78431;BME280;67727;50.236;22.452;2023-03-23T08:55:22;99243.39;;;17.93;48.75
78431;BME280;67727;50.236;22.452;2023-03-23T08:57:48;99244.10;;;17.99;48.57
78431;BME280;67727;50.236;22.452;2023-03-23T09:00:20;99246.15;;;18.04;48.69
78431;BME280;67727;50.236;22.452;2023-03-23T09:02:52;99243.80;;;18.08;48.55
78431;BME280;67727;50.236;22.452;2023-03-23T09:05:22;99245.72;;;18.11;48.22
78431;BME280;67727;50.236;22.452;2023-03-23T09:07:53;99245.52;;;18.09;47.50
78431;BME280;67727;50.236;22.452;2023-03-23T09:10:21;99239.92;;;18.04;47.35
78431;BME280;67727;50.236;22.452;2023-03-23T09:12:49;99239.90;;;18.03;48.03
78431;BME280;67727;50.236;22.452;2023-03-23T09:15:17;99237.86;;;18.08;48.34
78431;BME280;67727;50.236;22.452;2023-03-23T09:17:46;99234.11;;;18.16;48.20
78431;BME280;67727;50.236;22.452;2023-03-23T09:20:16;99235.06;;;18.26;47.91
78431;BME280;67727;50.236;22.452;2023-03-23T09:22:49;99239.84;;;18.37;47.28
78431;BME280;67727;50.236;22.452;2023-03-23T09:25:20;99241.19;;;18.45;46.24
78431;BME280;67727;50.236;22.452;2023-03-23T09:27:50;99240.22;;;18.56;46.21
78431;BME280;67727;50.236;22.452;2023-03-23T09:30:30;99239.75;;;18.73;46.50
78431;BME280;67727;50.236;22.452;2023-03-23T09:33:00;99234.11;;;18.97;47.26
78431;BME280;67727;50.236;22.452;2023-03-23T09:35:28;99235.23;;;19.18;46.69
78431;BME280;67727;50.236;22.452;2023-03-23T09:37:55;99236.74;;;19.33;46.50
78431;BME280;67727;50.236;22.452;2023-03-23T09:40:32;99233.92;;;19.46;45.71
78431;BME280;67727;50.236;22.452;2023-03-23T09:53:56;99225.92;;;19.66;45.37
78431;BME280;67727;50.236;22.452;2023-03-23T09:56:30;99225.48;;;19.66;44.89
78431;BME280;67727;50.236;22.452;2023-03-23T09:59:20;99223.63;;;19.63;44.79
78431;BME280;67727;50.236;22.452;2023-03-23T10:01:51;99223.75;;;19.58;43.75
78431;BME280;67727;50.236;22.452;2023-03-23T10:04:37;99221.25;;;19.59;44.25
78431;BME280;67727;50.236;22.452;2023-03-23T10:07:20;99220.71;;;19.70;44.30
78431;BME280;67727;50.236;22.452;2023-03-23T10:09:53;99216.84;;;19.81;43.77
78431;BME280;67727;50.236;22.452;2023-03-23T10:25:48;99210.63;;;19.97;43.64
78431;BME280;67727;50.236;22.452;2023-03-23T10:28:32;99208.48;;;20.05;42.62
78431;BME280;67727;50.236;22.452;2023-03-23T10:31:10;99208.11;;;20.06;43.37
78431;BME280;67727;50.236;22.452;2023-03-23T10:36:06;99206.59;;;19.96;42.83
78431;BME280;67727;50.236;22.452;2023-03-23T10:41:19;99210.45;;;19.82;43.41
78431;BME280;67727;50.236;22.452;2023-03-23T10:43:46;99209.36;;;19.78;42.96
78431;BME280;67727;50.236;22.452;2023-03-23T10:49:04;99199.80;;;19.91;43.62
78431;BME280;67727;50.236;22.452;2023-03-23T10:51:37;99197.35;;;20.05;42.89
78431;BME280;67727;50.236;22.452;2023-03-23T10:54:07;99199.90;;;20.21;43.28
78431;BME280;67727;50.236;22.452;2023-03-23T10:56:39;99197.15;;;20.30;42.49
78431;BME280;67727;50.236;22.452;2023-03-23T10:59:20;99196.04;;;20.41;41.82
78431;BME280;67727;50.236;22.452;2023-03-23T11:01:50;99193.38;;;20.52;41.70
78431;BME280;67727;50.236;22.452;2023-03-23T11:04:18;99185.93;;;20.62;41.16
78431;BME280;67727;50.236;22.452;2023-03-23T11:06:48;99187.24;;;20.63;41.04
78431;BME280;67727;50.236;22.452;2023-03-23T11:09:19;99183.84;;;20.67;40.79
78431;BME280;67727;50.236;22.452;2023-03-23T11:11:54;99179.18;;;20.70;40.75
78431;BME280;67727;50.236;22.452;2023-03-23T11:14:33;99173.91;;;20.78;41.26
78431;BME280;67727;50.236;22.452;2023-03-23T11:17:03;99169.95;;;20.86;41.38
78431;BME280;67727;50.236;22.452;2023-03-23T11:19:34;99168.91;;;20.85;40.56
78431;BME280;67727;50.236;22.452;2023-03-23T11:22:08;99170.36;;;20.79;40.88
78431;BME280;67727;50.236;22.452;2023-03-23T11:24:41;99166.84;;;20.77;41.87
78431;BME280;67727;50.236;22.452;2023-03-23T11:27:10;99165.86;;;20.74;41.37
78431;BME280;67727;50.236;22.452;2023-03-23T11:30:29;99167.54;;;20.72;41.13
78431;BME280;67727;50.236;22.452;2023-03-23T11:32:31;99168.85;;;20.67;41.03
78431;BME280;67727;50.236;22.452;2023-03-23T11:35:00;99170.64;;;20.67;41.71
78431;BME280;67727;50.236;22.452;2023-03-23T11:37:41;99164.48;;;20.72;41.57
78431;BME280;67727;50.236;22.452;2023-03-23T11:42:46;99160.11;;;20.81;40.93
78431;BME280;67727;50.236;22.452;2023-03-23T11:45:18;99157.41;;;20.77;40.46
78431;BME280;67727;50.236;22.452;2023-03-23T11:54:32;99146.86;;;20.65;39.97
78431;BME280;67727;50.236;22.452;2023-03-23T11:56:51;99152.17;;;20.63;40.47
78431;BME280;67727;50.236;22.452;2023-03-23T11:59:26;99147.41;;;20.66;40.34
78431;BME280;67727;50.236;22.452;2023-03-23T12:02:00;99141.05;;;20.72;40.55
78431;BME280;67727;50.236;22.452;2023-03-23T12:04:39;99141.58;;;20.83;41.47
78431;BME280;67727;50.236;22.452;2023-03-23T12:26:30;99125.14;;;21.26;39.74
78431;BME280;67727;50.236;22.452;2023-03-23T12:32:08;99110.28;;;21.15;39.31
78431;BME280;67727;50.236;22.452;2023-03-23T12:43:19;99101.52;;;20.35;40.08
78431;BME280;67727;50.236;22.452;2023-03-23T12:46:17;99099.66;;;20.35;40.84
78431;BME280;67727;50.236;22.452;2023-03-23T12:48:52;99096.08;;;20.44;40.98
78431;BME280;67727;50.236;22.452;2023-03-23T12:51:22;99095.89;;;20.50;40.62
78431;BME280;67727;50.236;22.452;2023-03-23T12:54:01;99093.20;;;20.53;39.97
78431;BME280;67727;50.236;22.452;2023-03-23T12:56:36;99094.70;;;20.54;40.29
78431;BME280;67727;50.236;22.452;2023-03-23T12:59:27;99092.55;;;20.57;40.39
78431;BME280;67727;50.236;22.452;2023-03-23T13:02:01;99084.94;;;20.60;40.41
78431;BME280;67727;50.236;22.452;2023-03-23T13:04:38;99083.44;;;20.62;39.56
78431;BME280;67727;50.236;22.452;2023-03-23T13:07:09;99078.38;;;20.61;39.95
78431;BME280;67727;50.236;22.452;2023-03-23T13:10:04;99075.32;;;20.59;39.33
78431;BME280;67727;50.236;22.452;2023-03-23T13:12:33;99074.40;;;20.57;39.54
78431;BME280;67727;50.236;22.452;2023-03-23T13:18:08;99074.17;;;20.55;38.71
78431;BME280;67727;50.236;22.452;2023-03-23T13:28:32;99044.47;;;20.59;39.57
78431;BME280;67727;50.236;22.452;2023-03-23T13:31:12;99044.79;;;20.58;39.38
78431;BME280;67727;50.236;22.452;2023-03-23T13:33:57;99040.34;;;20.54;38.93
78431;BME280;67727;50.236;22.452;2023-03-23T13:36:35;99040.92;;;20.47;39.04
78431;BME280;67727;50.236;22.452;2023-03-23T13:39:05;99038.86;;;20.40;39.27
78431;BME280;67727;50.236;22.452;2023-03-23T13:41:46;99039.31;;;20.35;39.45
78431;BME280;67727;50.236;22.452;2023-03-23T13:44:23;99031.74;;;20.33;39.39
78431;BME280;67727;50.236;22.452;2023-03-23T13:47:08;99028.48;;;20.36;39.37
78431;BME280;67727;50.236;22.452;2023-03-23T13:52:53;99028.51;;;20.32;38.64
78431;BME280;67727;50.236;22.452;2023-03-23T13:55:22;99026.23;;;20.30;38.31
78431;BME280;67727;50.236;22.452;2023-03-23T13:58:09;99016.81;;;20.24;38.78
78431;BME280;67727;50.236;22.452;2023-03-23T14:00:46;99020.11;;;20.21;39.33
78431;BME280;67727;50.236;22.452;2023-03-23T14:03:26;99023.54;;;20.19;39.40
78431;BME280;67727;50.236;22.452;2023-03-23T14:06:03;99020.84;;;20.16;39.28
78431;BME280;67727;50.236;22.452;2023-03-23T14:11:01;99021.71;;;20.24;39.98
78431;BME280;67727;50.236;22.452;2023-03-23T14:16:25;99020.21;;;20.39;39.60
78431;BME280;67727;50.236;22.452;2023-03-23T14:18:56;99015.77;;;20.46;38.71
78431;BME280;67727;50.236;22.452;2023-03-23T14:21:41;99015.16;;;20.48;38.48
78431;BME280;67727;50.236;22.452;2023-03-23T14:24:15;99019.21;;;20.45;38.57
78431;BME280;67727;50.236;22.452;2023-03-23T14:26:44;99017.30;;;20.36;38.37
78431;BME280;67727;50.236;22.452;2023-03-23T14:29:12;99008.83;;;20.21;38.63
78431;BME280;67727;50.236;22.452;2023-03-23T14:31:40;99011.70;;;20.08;38.44
78431;BME280;67727;50.236;22.452;2023-03-23T14:34:16;99008.77;;;19.93;38.91
78431;BME280;67727;50.236;22.452;2023-03-23T14:36:45;99008.92;;;19.81;39.27
78431;BME280;67727;50.236;22.452;2023-03-23T14:39:19;99010.69;;;19.70;39.87
78431;BME280;67727;50.236;22.452;2023-03-23T14:41:49;99014.46;;;19.61;40.33
78431;BME280;67727;50.236;22.452;2023-03-23T14:44:22;99019.48;;;19.51;40.08
78431;BME280;67727;50.236;22.452;2023-03-23T14:46:49;99015.35;;;19.39;40.07
78431;BME280;67727;50.236;22.452;2023-03-23T14:49:19;99013.27;;;19.26;40.42
78431;BME280;67727;50.236;22.452;2023-03-23T14:51:53;99013.50;;;19.15;40.55
78431;BME280;67727;50.236;22.452;2023-03-23T14:54:25;99011.16;;;19.04;41.27
78431;BME280;67727;50.236;22.452;2023-03-23T14:56:54;99010.96;;;18.93;41.63
78431;BME280;67727;50.236;22.452;2023-03-23T14:59:21;99012.33;;;18.84;41.66
78431;BME280;67727;50.236;22.452;2023-03-23T15:01:50;99011.39;;;18.75;41.80
78431;BME280;67727;50.236;22.452;2023-03-23T15:04:24;99011.48;;;18.66;41.98